Steelville, Ohio
Current Conditions -  °F | °C
As of 6:53 AM on Thursday 29 Jan 2015 (Local Time) from KLUK Reporting Station
Overcast Overcast  
Wind Chill: 26°   Ceiling: 7000
Heat Index: 34°   Visibility: 10mi
Dew Point: 29°   Wind: 10mph
Humidity: 82%   Direction: 190°S
Pressure: 29.92"   Gusts: NA
Location:  39.23°N, 84.2394°W
Report Text: KLUK 291153Z 19009KT 10SM OVC070 01/M02 A2992 RMK AO2 RAE47 SLP137 P0006 60008 70008 T00111017 10022 21011 58039
Loading
Personal Weather Stations






























Interactive Weather Map New forecast layout! Learn more

10-Day Weather Forecast

Advertisements
Track Severe Weather on mobile